sensor_id;sensor_type;location;lat;lon;timestamp;P1;durP1;ratioP1;P2;durP2;ratioP2
15498;SDS011;7851;52.260;6.030;2023-01-26T00:02:59;74.6;;;43;;
15498;SDS011;7851;52.260;6.030;2023-01-26T00:02:59;73.6;;;42.5;;
15498;SDS011;7851;52.260;6.030;2023-01-26T00:02:59;67.5;;;42.9;;
15498;SDS011;7851;52.260;6.030;2023-01-26T00:03:02;68.1;;;40.5;;
15498;SDS011;7851;52.260;6.030;2023-01-26T00:04:02;74.6;;;40.9;;
15498;SDS011;7851;52.260;6.030;2023-01-26T00:05:02;71.5;;;38.6;;
15498;SDS011;7851;52.260;6.030;2023-01-26T00:06:02;67.3;;;39.5;;
15498;SDS011;7851;52.260;6.030;2023-01-26T00:07:02;69.2;;;40.7;;
15498;SDS011;7851;52.260;6.030;2023-01-26T00:08:02;72.4;;;40.4;;
15498;SDS011;7851;52.260;6.030;2023-01-26T00:09:02;66;;;41;;
15498;SDS011;7851;52.260;6.030;2023-01-26T00:10:02;75.3;;;41.2;;
15498;SDS011;7851;52.260;6.030;2023-01-26T00:11:02;75.7;;;42.4;;
15498;SDS011;7851;52.260;6.030;2023-01-26T00:12:02;62.1;;;39.8;;
15498;SDS011;7851;52.260;6.030;2023-01-26T00:13:02;64.2;;;39.7;;
15498;SDS011;7851;52.260;6.030;2023-01-26T00:14:02;76.4;;;40.3;;
15498;SDS011;7851;52.260;6.030;2023-01-26T00:15:03;62.5;;;38.7;;
15498;SDS011;7851;52.260;6.030;2023-01-26T00:16:02;65.6;;;39.1;;
15498;SDS011;7851;52.260;6.030;2023-01-26T00:17:02;69.5;;;39.8;;
15498;SDS011;7851;52.260;6.030;2023-01-26T00:18:02;62.8;;;40.3;;
15498;SDS011;7851;52.260;6.030;2023-01-26T00:19:02;78.2;;;43;;
15498;SDS011;7851;52.260;6.030;2023-01-26T00:20:02;65.6;;;37.9;;
15498;SDS011;7851;52.260;6.030;2023-01-26T00:21:02;67.7;;;39.3;;
15498;SDS011;7851;52.260;6.030;2023-01-26T00:22:02;70;;;40.7;;
15498;SDS011;7851;52.260;6.030;2023-01-26T00:23:02;65.4;;;39.9;;
15498;SDS011;7851;52.260;6.030;2023-01-26T00:24:02;64.8;;;38.4;;
15498;SDS011;7851;52.260;6.030;2023-01-26T00:25:03;63.9;;;38.2;;
15498;SDS011;7851;52.260;6.030;2023-01-26T00:26:04;59;;;37.5;;
15498;SDS011;7851;52.260;6.030;2023-01-26T00:27:02;74.9;;;40.7;;
15498;SDS011;7851;52.260;6.030;2023-01-26T00:28:02;64;;;39;;
15498;SDS011;7851;52.260;6.030;2023-01-26T00:29:02;85.3;;;41.4;;
15498;SDS011;7851;52.260;6.030;2023-01-26T00:30:04;67.4;;;39.5;;
15498;SDS011;7851;52.260;6.030;2023-01-26T00:31:02;63.6;;;39.4;;
15498;SDS011;7851;52.260;6.030;2023-01-26T00:32:02;71.8;;;40.9;;
15498;SDS011;7851;52.260;6.030;2023-01-26T00:33:02;67.3;;;39.1;;
15498;SDS011;7851;52.260;6.030;2023-01-26T00:34:02;73.1;;;39.7;;
15498;SDS011;7851;52.260;6.030;2023-01-26T00:35:03;71.2;;;39.7;;
15498;SDS011;7851;52.260;6.030;2023-01-26T00:36:02;60.6;;;38.7;;
15498;SDS011;7851;52.260;6.030;2023-01-26T00:37:02;61.3;;;38.4;;
15498;SDS011;7851;52.260;6.030;2023-01-26T00:38:02;65.8;;;38.4;;
15498;SDS011;7851;52.260;6.030;2023-01-26T00:39:02;66.7;;;39.2;;
15498;SDS011;7851;52.260;6.030;2023-01-26T00:40:03;75.6;;;40;;
15498;SDS011;7851;52.260;6.030;2023-01-26T00:41:02;62;;;39.2;;
15498;SDS011;7851;52.260;6.030;2023-01-26T00:42:03;71;;;40.5;;
15498;SDS011;7851;52.260;6.030;2023-01-26T00:43:02;63.4;;;39.3;;
15498;SDS011;7851;52.260;6.030;2023-01-26T00:44:02;73.7;;;40.7;;
15498;SDS011;7851;52.260;6.030;2023-01-26T00:45:02;67.2;;;37.6;;
15498;SDS011;7851;52.260;6.030;2023-01-26T00:46:02;69.3;;;38.2;;
15498;SDS011;7851;52.260;6.030;2023-01-26T00:47:02;69.4;;;39.5;;
15498;SDS011;7851;52.260;6.030;2023-01-26T00:48:02;64.4;;;36.3;;
15498;SDS011;7851;52.260;6.030;2023-01-26T00:49:02;61.7;;;35.7;;
15498;SDS011;7851;52.260;6.030;2023-01-26T00:50:03;57.4;;;36.9;;
15498;SDS011;7851;52.260;6.030;2023-01-26T00:51:02;58.9;;;37.8;;
15498;SDS011;7851;52.260;6.030;2023-01-26T00:52:02;61.5;;;37.6;;
15498;SDS011;7851;52.260;6.030;2023-01-26T00:53:02;59;;;35.9;;
15498;SDS011;7851;52.260;6.030;2023-01-26T00:54:02;63.7;;;38.3;;
15498;SDS011;7851;52.260;6.030;2023-01-26T00:55:02;66.5;;;37.2;;
15498;SDS011;7851;52.260;6.030;2023-01-26T00:56:02;59.9;;;37.2;;
15498;SDS011;7851;52.260;6.030;2023-01-26T00:57:02;65.7;;;37.4;;
15498;SDS011;7851;52.260;6.030;2023-01-26T00:58:03;57.6;;;35;;
15498;SDS011;7851;52.260;6.030;2023-01-26T00:59:02;58.9;;;35.6;;
15498;SDS011;7851;52.260;6.030;2023-01-26T01:00:05;57.9;;;35.5;;
15498;SDS011;7851;52.260;6.030;2023-01-26T01:01:02;62.5;;;36.7;;
15498;SDS011;7851;52.260;6.030;2023-01-26T01:02:02;57.8;;;35.7;;
15498;SDS011;7851;52.260;6.030;2023-01-26T01:03:02;60.7;;;35.4;;
15498;SDS011;7851;52.260;6.030;2023-01-26T01:04:02;61.9;;;36.5;;
15498;SDS011;7851;52.260;6.030;2023-01-26T01:05:02;62;;;37.8;;
15498;SDS011;7851;52.260;6.030;2023-01-26T01:06:02;57.3;;;35.7;;
15498;SDS011;7851;52.260;6.030;2023-01-26T01:07:02;58.6;;;36.3;;
15498;SDS011;7851;52.260;6.030;2023-01-26T01:08:02;62.3;;;37.4;;
15498;SDS011;7851;52.260;6.030;2023-01-26T01:09:02;59.8;;;35.7;;
15498;SDS011;7851;52.260;6.030;2023-01-26T01:10:02;66.3;;;37.1;;
15498;SDS011;7851;52.260;6.030;2023-01-26T01:11:03;62.7;;;35.9;;
15498;SDS011;7851;52.260;6.030;2023-01-26T01:12:02;58.4;;;35.7;;
15498;SDS011;7851;52.260;6.030;2023-01-26T01:13:02;55.7;;;35.3;;
15498;SDS011;7851;52.260;6.030;2023-01-26T01:14:02;61.6;;;37.5;;
15498;SDS011;7851;52.260;6.030;2023-01-26T01:15:03;63;;;37.4;;
15498;SDS011;7851;52.260;6.030;2023-01-26T01:16:03;64.5;;;37.1;;
15498;SDS011;7851;52.260;6.030;2023-01-26T01:17:02;56.7;;;36.7;;
15498;SDS011;7851;52.260;6.030;2023-01-26T01:18:02;53.9;;;35.1;;
15498;SDS011;7851;52.260;6.030;2023-01-26T01:19:02;56.3;;;35;;
15498;SDS011;7851;52.260;6.030;2023-01-26T01:20:02;60.6;;;37.4;;
15498;SDS011;7851;52.260;6.030;2023-01-26T01:21:04;53.8;;;34.9;;
15498;SDS011;7851;52.260;6.030;2023-01-26T01:22:02;50.2;;;35;;
15498;SDS011;7851;52.260;6.030;2023-01-26T01:23:02;63.4;;;37.5;;
15498;SDS011;7851;52.260;6.030;2023-01-26T01:24:02;54.5;;;33.8;;
15498;SDS011;7851;52.260;6.030;2023-01-26T01:25:02;61;;;35.7;;
15498;SDS011;7851;52.260;6.030;2023-01-26T01:26:02;54.6;;;35.4;;
15498;SDS011;7851;52.260;6.030;2023-01-26T01:27:02;61.3;;;35.1;;
15498;SDS011;7851;52.260;6.030;2023-01-26T01:28:02;60.8;;;34.8;;
15498;SDS011;7851;52.260;6.030;2023-01-26T01:29:02;56.8;;;34.7;;
15498;SDS011;7851;52.260;6.030;2023-01-26T01:30:03;60.5;;;35.7;;
15498;SDS011;7851;52.260;6.030;2023-01-26T01:31:02;59.4;;;35.4;;
15498;SDS011;7851;52.260;6.030;2023-01-26T01:32:02;58.6;;;34.5;;
15498;SDS011;7851;52.260;6.030;2023-01-26T01:33:02;58.8;;;37;;
15498;SDS011;7851;52.260;6.030;2023-01-26T01:34:02;59.2;;;35.9;;
15498;SDS011;7851;52.260;6.030;2023-01-26T01:35:02;57.4;;;34.8;;
15498;SDS011;7851;52.260;6.030;2023-01-26T01:36:03;62.1;;;37.9;;
15498;SDS011;7851;52.260;6.030;2023-01-26T01:37:02;51.1;;;33;;
15498;SDS011;7851;52.260;6.030;2023-01-26T01:38:02;58.2;;;34;;
15498;SDS011;7851;52.260;6.030;2023-01-26T01:39:02;58.4;;;35.4;;
15498;SDS011;7851;52.260;6.030;2023-01-26T01:40:02;52;;;33;;
15498;SDS011;7851;52.260;6.030;2023-01-26T01:41:04;60.2;;;35.3;;
15498;SDS011;7851;52.260;6.030;2023-01-26T01:42:02;62.9;;;37;;
15498;SDS011;7851;52.260;6.030;2023-01-26T01:43:04;55.5;;;35.4;;
15498;SDS011;7851;52.260;6.030;2023-01-26T01:44:10;53;;;34.6;;
15498;SDS011;7851;52.260;6.030;2023-01-26T01:46:02;52.9;;;33.5;;
15498;SDS011;7851;52.260;6.030;2023-01-26T01:47:02;45.3;;;32.1;;
15498;SDS011;7851;52.260;6.030;2023-01-26T01:48:02;48.1;;;32.6;;
15498;SDS011;7851;52.260;6.030;2023-01-26T01:49:03;53.9;;;33.4;;
15498;SDS011;7851;52.260;6.030;2023-01-26T01:50:02;51.4;;;33.8;;
15498;SDS011;7851;52.260;6.030;2023-01-26T01:51:02;52.2;;;33.5;;
15498;SDS011;7851;52.260;6.030;2023-01-26T01:52:03;47.4;;;31.9;;
15498;SDS011;7851;52.260;6.030;2023-01-26T01:53:02;52.7;;;31.8;;
15498;SDS011;7851;52.260;6.030;2023-01-26T01:54:03;51.3;;;32.6;;
15498;SDS011;7851;52.260;6.030;2023-01-26T01:55:04;48.8;;;31.2;;
15498;SDS011;7851;52.260;6.030;2023-01-26T01:56:03;49.2;;;31.9;;
15498;SDS011;7851;52.260;6.030;2023-01-26T01:57:04;53.4;;;32;;
15498;SDS011;7851;52.260;6.030;2023-01-26T01:58:02;55.5;;;33.6;;
15498;SDS011;7851;52.260;6.030;2023-01-26T01:59:02;49.9;;;32.9;;
15498;SDS011;7851;52.260;6.030;2023-01-26T02:00:04;56.4;;;34.2;;
15498;SDS011;7851;52.260;6.030;2023-01-26T02:01:02;50.8;;;31.2;;
15498;SDS011;7851;52.260;6.030;2023-01-26T02:02:02;55.9;;;34.8;;
15498;SDS011;7851;52.260;6.030;2023-01-26T02:03:03;48.3;;;31.3;;
15498;SDS011;7851;52.260;6.030;2023-01-26T02:04:02;47.1;;;31.9;;
15498;SDS011;7851;52.260;6.030;2023-01-26T02:05:03;47.9;;;32.7;;
15498;SDS011;7851;52.260;6.030;2023-01-26T02:06:02;51;;;30.7;;
15498;SDS011;7851;52.260;6.030;2023-01-26T02:07:02;50.9;;;31.5;;
15498;SDS011;7851;52.260;6.030;2023-01-26T02:08:02;57.4;;;32.7;;
15498;SDS011;7851;52.260;6.030;2023-01-26T02:09:02;47.9;;;31.3;;
15498;SDS011;7851;52.260;6.030;2023-01-26T02:10:03;51.7;;;33;;
15498;SDS011;7851;52.260;6.030;2023-01-26T02:11:04;47.4;;;29.6;;
15498;SDS011;7851;52.260;6.030;2023-01-26T02:12:02;49.1;;;32.3;;
15498;SDS011;7851;52.260;6.030;2023-01-26T02:13:02;51.4;;;31.1;;
15498;SDS011;7851;52.260;6.030;2023-01-26T02:14:02;50.2;;;31.3;;
15498;SDS011;7851;52.260;6.030;2023-01-26T02:15:03;44.9;;;29.9;;
15498;SDS011;7851;52.260;6.030;2023-01-26T02:16:02;45.4;;;30.4;;
15498;SDS011;7851;52.260;6.030;2023-01-26T02:17:02;51.2;;;30.9;;
15498;SDS011;7851;52.260;6.030;2023-01-26T02:18:02;50.6;;;31.4;;
15498;SDS011;7851;52.260;6.030;2023-01-26T02:19:02;42.3;;;30.8;;
15498;SDS011;7851;52.260;6.030;2023-01-26T02:20:03;44.6;;;29.9;;
15498;SDS011;7851;52.260;6.030;2023-01-26T02:21:02;45.9;;;32.1;;
15498;SDS011;7851;52.260;6.030;2023-01-26T02:22:05;45.8;;;31.1;;
15498;SDS011;7851;52.260;6.030;2023-01-26T02:23:04;55.3;;;31.6;;
15498;SDS011;7851;52.260;6.030;2023-01-26T02:24:05;45.1;;;30.6;;
15498;SDS011;7851;52.260;6.030;2023-01-26T02:25:03;56;;;32.5;;
15498;SDS011;7851;52.260;6.030;2023-01-26T02:26:04;52;;;32.3;;
15498;SDS011;7851;52.260;6.030;2023-01-26T02:27:02;47.9;;;31.7;;
15498;SDS011;7851;52.260;6.030;2023-01-26T02:28:02;46.6;;;30.2;;
15498;SDS011;7851;52.260;6.030;2023-01-26T02:29:02;50.9;;;28.9;;
15498;SDS011;7851;52.260;6.030;2023-01-26T02:30:03;50.4;;;31.8;;
15498;SDS011;7851;52.260;6.030;2023-01-26T02:31:02;45.5;;;30.8;;
15498;SDS011;7851;52.260;6.030;2023-01-26T02:32:02;44.4;;;29.2;;
15498;SDS011;7851;52.260;6.030;2023-01-26T02:33:02;51.8;;;31.2;;
15498;SDS011;7851;52.260;6.030;2023-01-26T02:34:02;43.9;;;29.6;;
15498;SDS011;7851;52.260;6.030;2023-01-26T02:35:02;47.3;;;30.6;;
15498;SDS011;7851;52.260;6.030;2023-01-26T02:36:02;44.7;;;29.4;;
15498;SDS011;7851;52.260;6.030;2023-01-26T02:37:02;46.8;;;29.9;;
15498;SDS011;7851;52.260;6.030;2023-01-26T02:38:02;47.7;;;30.6;;
15498;SDS011;7851;52.260;6.030;2023-01-26T02:39:12;55.2;;;31.9;;
15498;SDS011;7851;52.260;6.030;2023-01-26T02:40:04;42.4;;;28.8;;
15498;SDS011;7851;52.260;6.030;2023-01-26T02:41:03;53.4;;;31.9;;
15498;SDS011;7851;52.260;6.030;2023-01-26T02:42:02;43.7;;;30.3;;
15498;SDS011;7851;52.260;6.030;2023-01-26T02:43:02;45.2;;;28;;
15498;SDS011;7851;52.260;6.030;2023-01-26T02:44:03;45;;;28.8;;
15498;SDS011;7851;52.260;6.030;2023-01-26T02:45:02;47.1;;;30.6;;
15498;SDS011;7851;52.260;6.030;2023-01-26T02:46:02;44.4;;;29.1;;
15498;SDS011;7851;52.260;6.030;2023-01-26T02:47:09;41.8;;;28.9;;
15498;SDS011;7851;52.260;6.030;2023-01-26T02:48:03;45.3;;;29.6;;
15498;SDS011;7851;52.260;6.030;2023-01-26T02:49:02;44;;;28.8;;
15498;SDS011;7851;52.260;6.030;2023-01-26T02:50:02;46.7;;;28.4;;
15498;SDS011;7851;52.260;6.030;2023-01-26T02:51:02;45.1;;;29.1;;
15498;SDS011;7851;52.260;6.030;2023-01-26T02:52:03;43.1;;;28.5;;
15498;SDS011;7851;52.260;6.030;2023-01-26T02:53:02;43.9;;;28.9;;
15498;SDS011;7851;52.260;6.030;2023-01-26T02:54:02;43.9;;;28.9;;
15498;SDS011;7851;52.260;6.030;2023-01-26T02:55:02;49;;;28.8;;
15498;SDS011;7851;52.260;6.030;2023-01-26T02:56:02;41.1;;;28.5;;
15498;SDS011;7851;52.260;6.030;2023-01-26T02:57:02;41.2;;;27.4;;
15498;SDS011;7851;52.260;6.030;2023-01-26T02:58:02;44.1;;;28;;
15498;SDS011;7851;52.260;6.030;2023-01-26T02:59:02;44.3;;;28.8;;
15498;SDS011;7851;52.260;6.030;2023-01-26T03:00:06;42.6;;;26.9;;
15498;SDS011;7851;52.260;6.030;2023-01-26T03:01:02;34.9;;;25.5;;
15498;SDS011;7851;52.260;6.030;2023-01-26T03:02:02;39.4;;;25.6;;
15498;SDS011;7851;52.260;6.030;2023-01-26T03:03:03;38.5;;;27.6;;
15498;SDS011;7851;52.260;6.030;2023-01-26T03:04:02;33.9;;;24.8;;
15498;SDS011;7851;52.260;6.030;2023-01-26T03:05:02;35;;;25.6;;
15498;SDS011;7851;52.260;6.030;2023-01-26T03:06:02;37.3;;;25.3;;
15498;SDS011;7851;52.260;6.030;2023-01-26T03:07:02;39.7;;;25.9;;
15498;SDS011;7851;52.260;6.030;2023-01-26T03:08:03;31.6;;;23.2;;
15498;SDS011;7851;52.260;6.030;2023-01-26T03:09:02;40.8;;;26.1;;
15498;SDS011;7851;52.260;6.030;2023-01-26T03:10:03;38.9;;;26.5;;
15498;SDS011;7851;52.260;6.030;2023-01-26T03:11:03;42.6;;;25.3;;
15498;SDS011;7851;52.260;6.030;2023-01-26T03:12:02;37.2;;;25.2;;
15498;SDS011;7851;52.260;6.030;2023-01-26T03:13:02;33.8;;;23.8;;
15498;SDS011;7851;52.260;6.030;2023-01-26T03:14:02;36.2;;;23.7;;
15498;SDS011;7851;52.260;6.030;2023-01-26T03:15:03;34.8;;;24.6;;
15498;SDS011;7851;52.260;6.030;2023-01-26T03:16:04;40.8;;;25.3;;
15498;SDS011;7851;52.260;6.030;2023-01-26T03:17:02;33.2;;;24.5;;
15498;SDS011;7851;52.260;6.030;2023-01-26T03:18:03;38.7;;;23.6;;
15498;SDS011;7851;52.260;6.030;2023-01-26T03:19:02;41.4;;;25.3;;
15498;SDS011;7851;52.260;6.030;2023-01-26T03:20:03;35.5;;;24.2;;
15498;SDS011;7851;52.260;6.030;2023-01-26T03:21:03;35.5;;;24.7;;
15498;SDS011;7851;52.260;6.030;2023-01-26T03:22:02;31.2;;;23.3;;
15498;SDS011;7851;52.260;6.030;2023-01-26T03:23:02;28.6;;;22.7;;
15498;SDS011;7851;52.260;6.030;2023-01-26T03:24:02;28.6;;;22.7;;
15498;SDS011;7851;52.260;6.030;2023-01-26T03:25:02;35.4;;;23.1;;
15498;SDS011;7851;52.260;6.030;2023-01-26T03:26:02;30.2;;;22.8;;
15498;SDS011;7851;52.260;6.030;2023-01-26T03:27:02;35.4;;;23.4;;
15498;SDS011;7851;52.260;6.030;2023-01-26T03:28:02;33.3;;;22.7;;
15498;SDS011;7851;52.260;6.030;2023-01-26T03:29:02;32.8;;;22.6;;
15498;SDS011;7851;52.260;6.030;2023-01-26T03:30:04;33.7;;;23.5;;
15498;SDS011;7851;52.260;6.030;2023-01-26T03:31:02;33.7;;;23.8;;
15498;SDS011;7851;52.260;6.030;2023-01-26T03:32:02;33.6;;;22.7;;
15498;SDS011;7851;52.260;6.030;2023-01-26T03:33:02;34.8;;;23.6;;
15498;SDS011;7851;52.260;6.030;2023-01-26T03:34:02;29.5;;;21.7;;
15498;SDS011;7851;52.260;6.030;2023-01-26T03:35:02;33.6;;;24;;
15498;SDS011;7851;52.260;6.030;2023-01-26T03:36:02;34.1;;;23.3;;
15498;SDS011;7851;52.260;6.030;2023-01-26T03:37:02;33.5;;;22.9;;
15498;SDS011;7851;52.260;6.030;2023-01-26T03:38:02;35.4;;;22.9;;
15498;SDS011;7851;52.260;6.030;2023-01-26T03:39:02;32.7;;;22.9;;
15498;SDS011;7851;52.260;6.030;2023-01-26T03:40:02;33.5;;;22.4;;
15498;SDS011;7851;52.260;6.030;2023-01-26T03:41:02;27.2;;;21.7;;
15498;SDS011;7851;52.260;6.030;2023-01-26T03:42:03;31;;;21.7;;
15498;SDS011;7851;52.260;6.030;2023-01-26T03:43:05;30.4;;;22.5;;
15498;SDS011;7851;52.260;6.030;2023-01-26T03:44:02;34.6;;;23;;
15498;SDS011;7851;52.260;6.030;2023-01-26T03:45:02;30.7;;;21.6;;
15498;SDS011;7851;52.260;6.030;2023-01-26T03:46:02;35.2;;;23.7;;
15498;SDS011;7851;52.260;6.030;2023-01-26T03:47:02;28.6;;;22.8;;
15498;SDS011;7851;52.260;6.030;2023-01-26T03:48:03;28;;;20.7;;
15498;SDS011;7851;52.260;6.030;2023-01-26T03:49:02;31.6;;;21.1;;
15498;SDS011;7851;52.260;6.030;2023-01-26T03:50:02;31;;;20.4;;
15498;SDS011;7851;52.260;6.030;2023-01-26T03:51:02;36.7;;;22.1;;
15498;SDS011;7851;52.260;6.030;2023-01-26T03:52:02;32.8;;;21.9;;
15498;SDS011;7851;52.260;6.030;2023-01-26T03:53:02;28.8;;;21.2;;
15498;SDS011;7851;52.260;6.030;2023-01-26T03:54:02;30.5;;;21.8;;
15498;SDS011;7851;52.260;6.030;2023-01-26T03:55:02;38;;;24;;
15498;SDS011;7851;52.260;6.030;2023-01-26T03:56:03;32.1;;;21.1;;
15498;SDS011;7851;52.260;6.030;2023-01-26T03:57:02;27.7;;;20.3;;
15498;SDS011;7851;52.260;6.030;2023-01-26T03:58:02;30.6;;;20.2;;
15498;SDS011;7851;52.260;6.030;2023-01-26T03:59:03;30.8;;;21;;
15498;SDS011;7851;52.260;6.030;2023-01-26T04:00:05;29.7;;;20.5;;
15498;SDS011;7851;52.260;6.030;2023-01-26T04:01:02;34.3;;;21.9;;
15498;SDS011;7851;52.260;6.030;2023-01-26T04:02:02;33.8;;;22.2;;
15498;SDS011;7851;52.260;6.030;2023-01-26T04:03:02;27.5;;;21.5;;
15498;SDS011;7851;52.260;6.030;2023-01-26T04:04:02;34.6;;;21.9;;
15498;SDS011;7851;52.260;6.030;2023-01-26T04:05:03;34;;;22.2;;
15498;SDS011;7851;52.260;6.030;2023-01-26T04:06:02;30;;;20.6;;
15498;SDS011;7851;52.260;6.030;2023-01-26T04:07:02;32;;;21.9;;
15498;SDS011;7851;52.260;6.030;2023-01-26T04:08:02;34.8;;;21.9;;
15498;SDS011;7851;52.260;6.030;2023-01-26T04:09:02;28.9;;;20.1;;
15498;SDS011;7851;52.260;6.030;2023-01-26T04:10:02;29.8;;;22.3;;
15498;SDS011;7851;52.260;6.030;2023-01-26T04:11:02;33.4;;;21.7;;
15498;SDS011;7851;52.260;6.030;2023-01-26T04:12:02;28.2;;;20.5;;
15498;SDS011;7851;52.260;6.030;2023-01-26T04:13:02;36.9;;;23.4;;
15498;SDS011;7851;52.260;6.030;2023-01-26T04:14:02;33.9;;;21.8;;
15498;SDS011;7851;52.260;6.030;2023-01-26T04:15:02;40.6;;;25.2;;
15498;SDS011;7851;52.260;6.030;2023-01-26T04:16:02;30;;;21.3;;
15498;SDS011;7851;52.260;6.030;2023-01-26T04:17:02;26.9;;;20.2;;
15498;SDS011;7851;52.260;6.030;2023-01-26T04:18:04;28.4;;;20.2;;
15498;SDS011;7851;52.260;6.030;2023-01-26T04:19:02;29.9;;;21.2;;
15498;SDS011;7851;52.260;6.030;2023-01-26T04:20:02;31.3;;;22.4;;
15498;SDS011;7851;52.260;6.030;2023-01-26T04:21:04;34.1;;;22.3;;
15498;SDS011;7851;52.260;6.030;2023-01-26T04:22:02;27.9;;;20.6;;
15498;SDS011;7851;52.260;6.030;2023-01-26T04:23:02;28.8;;;20.2;;
15498;SDS011;7851;52.260;6.030;2023-01-26T04:24:02;27.7;;;19.4;;
15498;SDS011;7851;52.260;6.030;2023-01-26T04:25:02;28.5;;;20.3;;
15498;SDS011;7851;52.260;6.030;2023-01-26T04:26:02;24.7;;;18.8;;
15498;SDS011;7851;52.260;6.030;2023-01-26T04:27:02;26.8;;;19.1;;
15498;SDS011;7851;52.260;6.030;2023-01-26T04:28:02;25.5;;;18.3;;
15498;SDS011;7851;52.260;6.030;2023-01-26T04:29:02;26.2;;;18.1;;
15498;SDS011;7851;52.260;6.030;2023-01-26T04:30:05;24.4;;;19.6;;
15498;SDS011;7851;52.260;6.030;2023-01-26T04:31:02;28;;;19.8;;
15498;SDS011;7851;52.260;6.030;2023-01-26T04:32:02;28.1;;;19.3;;
15498;SDS011;7851;52.260;6.030;2023-01-26T04:33:02;25.8;;;18.2;;
15498;SDS011;7851;52.260;6.030;2023-01-26T04:34:03;26.4;;;18.5;;
15498;SDS011;7851;52.260;6.030;2023-01-26T04:35:03;26;;;18.8;;
15498;SDS011;7851;52.260;6.030;2023-01-26T04:36:02;26.2;;;18.2;;
15498;SDS011;7851;52.260;6.030;2023-01-26T04:37:02;23.6;;;18.1;;
15498;SDS011;7851;52.260;6.030;2023-01-26T04:38:03;30;;;19.3;;
15498;SDS011;7851;52.260;6.030;2023-01-26T04:39:02;29.4;;;20.5;;
15498;SDS011;7851;52.260;6.030;2023-01-26T04:40:02;35.2;;;22.5;;
15498;SDS011;7851;52.260;6.030;2023-01-26T04:41:02;30.3;;;19.4;;
15498;SDS011;7851;52.260;6.030;2023-01-26T04:42:02;27.3;;;19.6;;
15498;SDS011;7851;52.260;6.030;2023-01-26T04:43:02;26.3;;;19.9;;
15498;SDS011;7851;52.260;6.030;2023-01-26T04:44:14;25.9;;;18.2;;
15498;SDS011;7851;52.260;6.030;2023-01-26T04:45:02;30;;;20.1;;
15498;SDS011;7851;52.260;6.030;2023-01-26T04:46:03;25.3;;;18.5;;
15498;SDS011;7851;52.260;6.030;2023-01-26T04:47:02;28.2;;;18.4;;
15498;SDS011;7851;52.260;6.030;2023-01-26T04:48:02;31.2;;;20.5;;
15498;SDS011;7851;52.260;6.030;2023-01-26T04:49:02;32.2;;;19.7;;
15498;SDS011;7851;52.260;6.030;2023-01-26T04:50:03;26.7;;;19.3;;
15498;SDS011;7851;52.260;6.030;2023-01-26T04:51:03;29.7;;;19.3;;
15498;SDS011;7851;52.260;6.030;2023-01-26T04:52:02;27.2;;;18.8;;
15498;SDS011;7851;52.260;6.030;2023-01-26T04:53:02;26.3;;;19.6;;
15498;SDS011;7851;52.260;6.030;2023-01-26T04:54:02;27.2;;;19.9;;
15498;SDS011;7851;52.260;6.030;2023-01-26T04:55:02;27.5;;;18.5;;
15498;SDS011;7851;52.260;6.030;2023-01-26T04:56:02;30.2;;;20.9;;
15498;SDS011;7851;52.260;6.030;2023-01-26T04:57:02;25.8;;;19.1;;
15498;SDS011;7851;52.260;6.030;2023-01-26T04:58:02;27.1;;;18.7;;
15498;SDS011;7851;52.260;6.030;2023-01-26T04:59:02;24.8;;;17.5;;
15498;SDS011;7851;52.260;6.030;2023-01-26T05:00:05;25.9;;;18.3;;
15498;SDS011;7851;52.260;6.030;2023-01-26T05:01:02;26.2;;;18.1;;
15498;SDS011;7851;52.260;6.030;2023-01-26T05:02:02;23.1;;;18.1;;
15498;SDS011;7851;52.260;6.030;2023-01-26T05:03:02;25.5;;;18.7;;
15498;SDS011;7851;52.260;6.030;2023-01-26T05:04:02;28.6;;;19.4;;
15498;SDS011;7851;52.260;6.030;2023-01-26T05:05:02;27.4;;;19.2;;
15498;SDS011;7851;52.260;6.030;2023-01-26T05:06:02;26.7;;;19.3;;
15498;SDS011;7851;52.260;6.030;2023-01-26T05:07:02;23.4;;;17.3;;
15498;SDS011;7851;52.260;6.030;2023-01-26T05:08:02;26.5;;;19.1;;
15498;SDS011;7851;52.260;6.030;2023-01-26T05:09:02;23.5;;;17.9;;
15498;SDS011;7851;52.260;6.030;2023-01-26T05:10:02;26.4;;;18;;
15498;SDS011;7851;52.260;6.030;2023-01-26T05:11:02;23.9;;;17.5;;
15498;SDS011;7851;52.260;6.030;2023-01-26T05:12:02;24;;;17.6;;
15498;SDS011;7851;52.260;6.030;2023-01-26T05:13:02;28.8;;;19.1;;
15498;SDS011;7851;52.260;6.030;2023-01-26T05:14:02;25;;;18.6;;
15498;SDS011;7851;52.260;6.030;2023-01-26T05:15:02;27.3;;;18.7;;
15498;SDS011;7851;52.260;6.030;2023-01-26T05:16:02;24.5;;;18.4;;
15498;SDS011;7851;52.260;6.030;2023-01-26T05:17:02;26.7;;;18.6;;
15498;SDS011;7851;52.260;6.030;2023-01-26T05:18:02;29.2;;;20.4;;
15498;SDS011;7851;52.260;6.030;2023-01-26T05:19:02;24.5;;;18.2;;
15498;SDS011;7851;52.260;6.030;2023-01-26T05:20:02;23.9;;;17.8;;
15498;SDS011;7851;52.260;6.030;2023-01-26T05:21:02;25.3;;;18.9;;
15498;SDS011;7851;52.260;6.030;2023-01-26T05:22:02;27;;;18.4;;
15498;SDS011;7851;52.260;6.030;2023-01-26T05:23:02;26.8;;;18.7;;
15498;SDS011;7851;52.260;6.030;2023-01-26T05:24:02;22.6;;;17.8;;
15498;SDS011;7851;52.260;6.030;2023-01-26T05:25:03;25.2;;;17.8;;
15498;SDS011;7851;52.260;6.030;2023-01-26T05:26:02;26.2;;;17.3;;
15498;SDS011;7851;52.260;6.030;2023-01-26T05:27:02;31.5;;;17.7;;
15498;SDS011;7851;52.260;6.030;2023-01-26T05:28:02;23.4;;;17.1;;
15498;SDS011;7851;52.260;6.030;2023-01-26T05:29:02;24.4;;;18.2;;
15498;SDS011;7851;52.260;6.030;2023-01-26T05:30:04;23.9;;;17.5;;
15498;SDS011;7851;52.260;6.030;2023-01-26T05:31:02;27.1;;;18.6;;
15498;SDS011;7851;52.260;6.030;2023-01-26T05:32:02;26.3;;;18.6;;
15498;SDS011;7851;52.260;6.030;2023-01-26T05:33:02;22.7;;;17;;
15498;SDS011;7851;52.260;6.030;2023-01-26T05:34:02;23.2;;;17.5;;
15498;SDS011;7851;52.260;6.030;2023-01-26T05:35:02;21.1;;;16;;
15498;SDS011;7851;52.260;6.030;2023-01-26T05:36:02;22.9;;;17;;
15498;SDS011;7851;52.260;6.030;2023-01-26T05:37:02;23;;;17.1;;
15498;SDS011;7851;52.260;6.030;2023-01-26T05:38:02;25.9;;;18.2;;
15498;SDS011;7851;52.260;6.030;2023-01-26T05:39:02;25.9;;;17.5;;
15498;SDS011;7851;52.260;6.030;2023-01-26T05:40:02;24.7;;;16.4;;
15498;SDS011;7851;52.260;6.030;2023-01-26T05:41:02;20.1;;;15.2;;
15498;SDS011;7851;52.260;6.030;2023-01-26T05:42:02;22.1;;;16.3;;
15498;SDS011;7851;52.260;6.030;2023-01-26T05:43:02;24.1;;;16.9;;
15498;SDS011;7851;52.260;6.030;2023-01-26T05:44:02;22.6;;;16.4;;
15498;SDS011;7851;52.260;6.030;2023-01-26T05:45:02;21.8;;;16.9;;
15498;SDS011;7851;52.260;6.030;2023-01-26T05:46:02;22.6;;;16.4;;
15498;SDS011;7851;52.260;6.030;2023-01-26T05:47:02;21.8;;;15.9;;
15498;SDS011;7851;52.260;6.030;2023-01-26T05:48:02;24.2;;;16.2;;
15498;SDS011;7851;52.260;6.030;2023-01-26T05:49:02;26.9;;;17.5;;
15498;SDS011;7851;52.260;6.030;2023-01-26T05:50:02;20.8;;;16;;
15498;SDS011;7851;52.260;6.030;2023-01-26T05:51:02;21.7;;;15.2;;
15498;SDS011;7851;52.260;6.030;2023-01-26T05:52:06;26.8;;;17.3;;
15498;SDS011;7851;52.260;6.030;2023-01-26T05:53:02;27;;;16.8;;
15498;SDS011;7851;52.260;6.030;2023-01-26T05:54:02;26;;;17.5;;
15498;SDS011;7851;52.260;6.030;2023-01-26T05:55:02;38;;;20.6;;
15498;SDS011;7851;52.260;6.030;2023-01-26T05:56:02;24.6;;;16.9;;
15498;SDS011;7851;52.260;6.030;2023-01-26T05:57:02;19.4;;;16.1;;
15498;SDS011;7851;52.260;6.030;2023-01-26T05:58:02;22.7;;;16.3;;
15498;SDS011;7851;52.260;6.030;2023-01-26T05:59:02;22.7;;;17.4;;
15498;SDS011;7851;52.260;6.030;2023-01-26T06:00:05;21.4;;;16.6;;
15498;SDS011;7851;52.260;6.030;2023-01-26T06:01:02;27.6;;;18.6;;
15498;SDS011;7851;52.260;6.030;2023-01-26T06:02:02;23.7;;;18.1;;
15498;SDS011;7851;52.260;6.030;2023-01-26T06:03:02;27.6;;;19.2;;
15498;SDS011;7851;52.260;6.030;2023-01-26T06:04:02;19.3;;;15.9;;
15498;SDS011;7851;52.260;6.030;2023-01-26T06:05:02;24.8;;;17.8;;
15498;SDS011;7851;52.260;6.030;2023-01-26T06:06:02;25.1;;;17.3;;
15498;SDS011;7851;52.260;6.030;2023-01-26T06:07:02;25.6;;;17.9;;
15498;SDS011;7851;52.260;6.030;2023-01-26T06:08:02;23.3;;;15.9;;
15498;SDS011;7851;52.260;6.030;2023-01-26T06:09:02;23.8;;;16.9;;